createdAt,value
2019-05-29T00:00:43.078Z,52.20
2019-05-29T00:03:12.520Z,52.00
2019-05-29T00:05:41.809Z,52.10
2019-05-29T00:08:12.107Z,52.20
2019-05-29T00:10:42.830Z,52.10
2019-05-29T00:13:12.360Z,52.30
2019-05-29T00:15:41.970Z,52.50
2019-05-29T00:18:12.398Z,52.50
2019-05-29T00:20:41.858Z,52.40
2019-05-29T00:23:11.047Z,52.30
2019-05-29T00:25:40.236Z,52.20
2019-05-29T00:28:10.539Z,52.30
2019-05-29T00:30:39.871Z,52.40
2019-05-29T00:33:10.087Z,52.60
2019-05-29T00:35:39.601Z,52.40
2019-05-29T00:38:08.775Z,52.40
2019-05-29T00:40:38.096Z,52.40
2019-05-29T00:43:07.449Z,52.30
2019-05-29T00:45:36.866Z,52.30
2019-05-29T00:48:07.717Z,52.10
2019-05-29T00:50:37.969Z,52.30
2019-05-29T00:53:08.099Z,52.50
2019-05-29T00:55:38.123Z,52.90
2019-05-29T00:58:07.299Z,52.80
2019-05-29T01:00:36.629Z,52.70
2019-05-29T01:03:05.797Z,52.50
2019-05-29T01:05:34.971Z,52.60
2019-05-29T01:08:04.115Z,52.60
2019-05-29T01:10:33.287Z,52.80
2019-05-29T01:13:02.474Z,53.00
2019-05-29T01:15:31.605Z,53.20
2019-05-29T01:18:00.749Z,53.00
2019-05-29T01:20:29.979Z,53.00
2019-05-29T01:22:59.149Z,52.80
2019-05-29T01:25:28.293Z,52.60
2019-05-29T01:27:57.449Z,52.90
2019-05-29T01:30:26.632Z,52.90
2019-05-29T01:32:55.781Z,52.90
2019-05-29T01:35:24.937Z,52.90
2019-05-29T01:37:54.130Z,52.70
2019-05-29T01:40:27.232Z,52.70
2019-05-29T01:42:54.295Z,52.90
2019-05-29T01:45:23.628Z,52.80
2019-05-29T01:47:52.781Z,52.80
2019-05-29T01:50:21.909Z,52.70
2019-05-29T01:52:51.127Z,52.60
2019-05-29T01:55:20.278Z,52.60
2019-05-29T01:57:49.487Z,52.90
2019-05-29T02:00:20.036Z,52.90
2019-05-29T02:02:49.797Z,52.60
2019-05-29T02:05:19.992Z,53.00
2019-05-29T02:07:50.091Z,52.90
2019-05-29T02:10:20.263Z,52.80
2019-05-29T02:12:50.098Z,52.90
2019-05-29T02:15:25.983Z,53.20
2019-05-29T02:17:50.298Z,53.60
2019-05-29T02:20:21.005Z,54.70
2019-05-29T02:22:50.322Z,54.20
2019-05-29T02:25:22.351Z,54.10
2019-05-29T02:27:51.747Z,54.00
2019-05-29T02:30:22.984Z,53.90
2019-05-29T02:32:52.040Z,53.80
2019-05-29T02:35:22.612Z,53.50
2019-05-29T02:37:52.088Z,54.00
2019-05-29T02:40:23.536Z,54.30
2019-05-29T02:42:52.203Z,54.10
2019-05-29T02:45:21.807Z,54.40
2019-05-29T02:47:52.334Z,55.00
2019-05-29T02:50:22.161Z,55.10
2019-05-29T02:52:51.845Z,55.00
2019-05-29T02:55:22.499Z,54.50
2019-05-29T02:57:51.896Z,55.10
2019-05-29T03:00:25.689Z,55.90
2019-05-29T03:02:55.116Z,56.40
2019-05-29T03:05:25.858Z,57.20
2019-05-29T03:07:55.315Z,56.20
2019-05-29T03:10:24.852Z,56.30
2019-05-29T03:12:54.428Z,56.00
2019-05-29T03:15:25.177Z,55.80
2019-05-29T03:17:54.493Z,55.90
2019-05-29T03:20:23.928Z,55.80
2019-05-29T03:22:54.063Z,56.10
2019-05-29T03:25:24.335Z,57.90
2019-05-29T03:27:53.793Z,57.50
2019-05-29T03:30:23.000Z,56.80
2019-05-29T03:32:52.088Z,56.20
2019-05-29T03:35:21.461Z,56.90
2019-05-29T03:37:50.720Z,56.60
2019-05-29T03:40:19.933Z,56.20
2019-05-29T03:42:49.193Z,56.70
2019-05-29T03:45:18.420Z,56.30
2019-05-29T03:47:47.605Z,57.10
2019-05-29T03:50:16.994Z,56.30
2019-05-29T03:52:46.163Z,56.00
2019-05-29T03:55:16.077Z,56.00
2019-05-29T03:57:45.350Z,55.60
2019-05-29T04:00:17.703Z,55.70
2019-05-29T04:02:48.660Z,56.10
2019-05-29T04:05:17.928Z,55.70
2019-05-29T04:07:47.156Z,55.60
2019-05-29T04:10:19.954Z,55.50
2019-05-29T04:12:49.164Z,55.60
2019-05-29T04:15:18.532Z,55.50
2019-05-29T04:17:48.419Z,55.50
2019-05-29T04:20:17.668Z,55.60
2019-05-29T04:22:48.433Z,56.20
2019-05-29T04:25:17.653Z,55.90
2019-05-29T04:27:50.498Z,56.20
2019-05-29T04:30:20.437Z,56.60
2019-05-29T04:32:49.680Z,59.20
2019-05-29T04:35:18.944Z,57.90
2019-05-29T04:37:48.106Z,58.00
2019-05-29T04:40:17.257Z,57.90
2019-05-29T04:42:46.440Z,59.70
2019-05-29T04:45:19.829Z,61.80
2019-05-29T04:47:49.028Z,63.20
2019-05-29T04:50:18.176Z,63.20
2019-05-29T04:52:47.414Z,63.20
2019-05-29T04:55:16.609Z,63.70
2019-05-29T04:57:45.758Z,63.70
2019-05-29T05:00:15.477Z,63.80
2019-05-29T05:02:44.730Z,61.70
2019-05-29T05:05:14.329Z,61.40
2019-05-29T05:07:43.627Z,62.00
2019-05-29T05:10:14.867Z,61.00
2019-05-29T05:12:45.032Z,61.00
2019-05-29T05:15:14.458Z,62.60
2019-05-29T05:17:43.645Z,61.90
2019-05-29T05:20:12.818Z,62.20
2019-05-29T05:22:42.040Z,62.80
2019-05-29T05:25:11.613Z,63.30
2019-05-29T05:27:41.193Z,63.20
2019-05-29T05:30:10.542Z,61.80
2019-05-29T05:32:41.177Z,62.60
2019-05-29T05:35:14.307Z,63.50
2019-05-29T05:37:42.136Z,61.70
2019-05-29T05:40:12.237Z,63.50
2019-05-29T05:42:42.921Z,62.10
2019-05-29T05:45:12.273Z,61.80
2019-05-29T05:47:54.648Z,61.90
2019-05-29T05:50:13.533Z,61.90
2019-05-29T05:52:42.795Z,60.60
2019-05-29T05:55:12.125Z,59.80
2019-05-29T05:57:41.846Z,59.10
2019-05-29T06:00:12.166Z,58.90
2019-05-29T06:02:42.141Z,58.60
2019-05-29T06:05:13.564Z,59.00
2019-05-29T06:07:42.816Z,58.20
2019-05-29T06:10:14.213Z,57.30
2019-05-29T06:12:43.482Z,56.90
2019-05-29T06:15:36.648Z,55.90
2019-05-29T06:18:20.667Z,54.90
2019-05-29T06:20:37.071Z,55.10
2019-05-29T06:23:06.292Z,54.10
2019-05-29T06:25:36.924Z,53.50
2019-05-29T06:28:06.698Z,53.10
2019-05-29T06:30:36.604Z,52.90
2019-05-29T06:33:18.643Z,52.50
2019-05-29T06:35:48.258Z,51.50
2019-05-29T06:38:17.617Z,51.30
2019-05-29T06:40:48.465Z,51.40
2019-05-29T06:43:23.489Z,51.20
2019-05-29T06:45:53.282Z,50.80
2019-05-29T06:48:58.858Z,51.00
2019-05-29T06:51:04.906Z,50.90
2019-05-29T06:53:35.519Z,50.40
2019-05-29T06:56:05.050Z,49.80
2019-05-29T06:58:34.286Z,49.80
2019-05-29T07:01:03.538Z,48.40
2019-05-29T07:03:32.846Z,48.30
2019-05-29T07:06:02.131Z,47.70
2019-05-29T07:08:38.806Z,46.30
2019-05-29T07:11:02.463Z,46.60
2019-05-29T07:13:34.901Z,45.50
2019-05-29T07:16:02.717Z,45.70
2019-05-29T07:18:31.894Z,46.10
2019-05-29T07:21:01.146Z,46.30
2019-05-29T07:23:30.311Z,45.70
2019-05-29T07:25:59.520Z,45.20
2019-05-29T07:28:28.725Z,46.00
2019-05-29T07:31:02.666Z,45.30
2019-05-29T07:33:28.846Z,45.60
2019-05-29T07:35:58.044Z,45.20
2019-05-29T07:38:27.325Z,44.00
2019-05-29T07:40:56.515Z,43.60
2019-05-29T07:43:25.785Z,44.50
2019-05-29T07:45:54.997Z,45.20
2019-05-29T07:48:24.405Z,44.80
2019-05-29T07:51:06.402Z,44.60
2019-05-29T07:53:24.714Z,45.00
2019-05-29T07:55:53.894Z,46.00
2019-05-29T07:58:23.041Z,46.30
2019-05-29T08:01:09.632Z,45.10
2019-05-29T08:03:23.268Z,45.00
2019-05-29T08:05:53.355Z,44.60
2019-05-29T08:08:23.221Z,44.70
2019-05-29T08:10:52.426Z,45.10
2019-05-29T08:13:21.822Z,45.80
2019-05-29T08:16:02.027Z,45.30
2019-05-29T08:18:21.961Z,45.30
2019-05-29T08:20:51.338Z,44.70
2019-05-29T08:23:20.578Z,44.40
2019-05-29T08:25:49.790Z,44.40
2019-05-29T08:28:19.051Z,45.00
2019-05-29T08:30:54.353Z,44.80
2019-05-29T08:33:19.335Z,45.20
2019-05-29T08:35:55.682Z,45.10
2019-05-29T08:38:19.418Z,45.50
2019-05-29T08:40:51.507Z,45.30
2019-05-29T08:43:21.190Z,45.70
2019-05-29T08:45:53.516Z,45.60
2019-05-29T08:48:22.732Z,45.70
2019-05-29T08:50:52.056Z,46.00
2019-05-29T08:53:21.370Z,45.10
2019-05-29T08:55:50.790Z,45.60
2019-05-29T08:58:20.112Z,45.60
2019-05-29T09:00:52.301Z,45.10
2019-05-29T09:03:20.459Z,45.20
2019-05-29T09:06:06.130Z,44.80
2019-05-29T09:08:20.787Z,44.80
2019-05-29T09:10:51.626Z,44.90
2019-05-29T09:13:21.180Z,45.10
2019-05-29T09:15:50.406Z,44.90
2019-05-29T09:18:19.839Z,45.10
2019-05-29T09:21:02.613Z,44.10
2019-05-29T09:23:20.941Z,43.90
2019-05-29T09:25:50.593Z,43.80
2019-05-29T09:28:19.142Z,43.60
2019-05-29T09:30:49.195Z,43.40
2019-05-29T09:33:21.082Z,43.30
2019-05-29T09:35:50.486Z,42.80
2019-05-29T09:38:20.959Z,42.50
2019-05-29T09:40:52.861Z,43.60
2019-05-29T09:43:27.023Z,43.40
2019-05-29T09:45:52.730Z,42.40
2019-05-29T09:48:26.494Z,42.30
2019-05-29T09:50:52.816Z,42.50
2019-05-29T09:53:22.105Z,42.90
2019-05-29T09:55:52.038Z,42.20
2019-05-29T09:58:22.269Z,41.50
2019-05-29T10:01:09.622Z,43.20
2019-05-29T10:03:22.597Z,41.10
2019-05-29T10:05:54.054Z,40.60
2019-05-29T10:08:22.819Z,40.10
2019-05-29T10:10:52.028Z,39.40
2019-05-29T10:13:21.305Z,40.80
2019-05-29T10:15:50.674Z,41.10
2019-05-29T10:18:31.960Z,40.60
2019-05-29T10:20:51.015Z,41.40
2019-05-29T10:23:22.669Z,41.40
2019-05-29T10:25:51.827Z,41.10
2019-05-29T10:28:21.467Z,40.70
2019-05-29T10:30:52.570Z,37.10
2019-05-29T10:33:21.664Z,37.50
2019-05-29T10:35:54.862Z,39.30
2019-05-29T10:38:24.689Z,39.40
2019-05-29T10:41:05.622Z,39.80
2019-05-29T10:43:34.374Z,39.40
2019-05-29T10:45:57.704Z,40.70
2019-05-29T10:48:27.301Z,39.90
2019-05-29T10:50:58.178Z,40.40
2019-05-29T10:53:27.799Z,38.60
2019-05-29T10:56:00.355Z,40.20
2019-05-29T10:58:48.033Z,39.70
2019-05-29T11:01:06.161Z,39.40
2019-05-29T11:03:35.624Z,39.30
2019-05-29T11:06:16.131Z,39.00
2019-05-29T11:08:50.043Z,37.70
2019-05-29T11:11:19.722Z,36.90
2019-05-29T11:13:49.062Z,38.30
2019-05-29T11:16:19.553Z,38.20
2019-05-29T11:18:49.160Z,38.60
2019-05-29T11:21:18.595Z,38.10
2019-05-29T11:23:47.824Z,37.00
2019-05-29T11:26:17.335Z,38.60
2019-05-29T11:28:46.531Z,38.00
2019-05-29T11:31:15.770Z,36.70
2019-05-29T11:33:48.828Z,37.60
2019-05-29T11:36:18.955Z,37.30
2019-05-29T11:38:48.562Z,37.20
2019-05-29T11:41:26.036Z,38.30
2019-05-29T11:43:54.895Z,38.10
2019-05-29T11:46:36.713Z,37.90
2019-05-29T11:49:06.611Z,37.40
2019-05-29T11:51:44.382Z,38.20
2019-05-29T11:54:45.779Z,39.40
2019-05-29T11:57:19.577Z,38.30
2019-05-29T12:00:02.071Z,37.40
2019-05-29T12:02:45.171Z,37.60
2019-05-29T12:06:48.528Z,37.90
2019-05-29T12:08:51.424Z,37.70
2019-05-29T12:11:23.868Z,38.40
2019-05-29T12:13:55.924Z,37.20
2019-05-29T12:16:24.194Z,37.10
2019-05-29T12:18:53.698Z,38.20
2019-05-29T12:21:23.112Z,39.00
2019-05-29T12:23:52.449Z,37.80
2019-05-29T12:26:23.195Z,37.80
2019-05-29T12:28:55.796Z,36.90
2019-05-29T12:31:25.025Z,36.90
2019-05-29T12:33:54.991Z,38.30
2019-05-29T12:36:28.619Z,37.30
2019-05-29T12:38:59.528Z,37.50
2019-05-29T12:41:28.873Z,36.80
2019-05-29T12:43:59.430Z,37.30
2019-05-29T12:46:28.705Z,37.50
2019-05-29T12:49:01.715Z,37.40
2019-05-29T12:51:30.992Z,38.00
2019-05-29T12:58:17.280Z,36.50
2019-05-29T13:01:08.147Z,38.40
2019-05-29T13:03:38.551Z,36.30
2019-05-29T13:06:09.604Z,37.10
2019-05-29T13:08:39.817Z,36.40
2019-05-29T13:11:09.642Z,36.40
2019-05-29T13:13:38.968Z,35.90
2019-05-29T13:16:08.263Z,36.30
2019-05-29T13:18:37.631Z,34.80
2019-05-29T13:21:06.905Z,35.60
2019-05-29T13:23:44.592Z,35.10
2019-05-29T13:26:10.286Z,34.90
2019-05-29T13:28:39.909Z,35.00
2019-05-29T13:31:09.102Z,35.30
2019-05-29T13:33:39.433Z,33.70
2019-05-29T13:36:19.387Z,33.30
2019-05-29T13:38:49.698Z,34.80
2019-05-29T13:41:20.116Z,35.20
2019-05-29T13:43:50.754Z,35.30
2019-05-29T14:00:38.981Z,34.40
2019-05-29T14:04:06.719Z,34.80
2019-05-29T14:09:25.983Z,36.20
2019-05-29T14:12:32.559Z,33.90
2019-05-29T14:15:12.428Z,33.50
2019-05-29T14:22:28.909Z,34.50
2019-05-29T14:25:40.342Z,34.20
2019-05-29T14:28:52.234Z,34.90
2019-05-29T14:31:25.563Z,36.00
2019-05-29T14:33:54.861Z,34.30
2019-05-29T14:36:24.123Z,33.50
2019-05-29T14:38:53.363Z,33.40
2019-05-29T14:41:22.618Z,35.00
2019-05-29T14:43:51.880Z,32.80
2019-05-29T14:46:22.638Z,33.60
2019-05-29T14:48:51.883Z,33.00
2019-05-29T14:51:21.884Z,33.40
2019-05-29T14:53:51.935Z,33.50
2019-05-29T14:56:21.259Z,33.10
2019-05-29T14:58:50.552Z,33.70
2019-05-29T15:01:20.173Z,34.20
2019-05-29T15:03:51.829Z,33.70
2019-05-29T15:06:24.018Z,33.60
2019-05-29T15:09:16.816Z,34.30
2019-05-29T15:11:42.415Z,34.90
2019-05-29T15:15:26.239Z,33.90
2019-05-29T15:18:37.236Z,33.10
2019-05-29T15:21:07.031Z,33.30
2019-05-29T15:23:36.185Z,33.60
2019-05-29T15:26:05.486Z,34.40
2019-05-29T15:28:34.710Z,34.30
2019-05-29T15:31:03.931Z,33.10
2019-05-29T15:33:33.216Z,33.40
2019-05-29T15:36:02.408Z,33.30
2019-05-29T15:38:31.634Z,33.50
2019-05-29T15:41:00.869Z,33.20
2019-05-29T15:43:30.746Z,33.40
2019-05-29T15:46:00.761Z,33.80
2019-05-29T15:48:32.656Z,33.50
2019-05-29T15:51:02.436Z,33.90
2019-05-29T15:53:32.156Z,34.30
2019-05-29T15:56:16.920Z,34.10
2019-05-29T15:58:34.109Z,33.90
2019-05-29T16:01:05.666Z,34.70
2019-05-29T16:03:35.000Z,34.30
2019-05-29T16:06:04.291Z,33.90
2019-05-29T16:08:33.550Z,33.60
2019-05-29T16:11:02.741Z,34.10
2019-05-29T16:13:32.087Z,34.10
2019-05-29T16:16:01.364Z,33.70
2019-05-29T16:18:30.595Z,34.70
2019-05-29T16:20:59.850Z,34.00
2019-05-29T16:23:35.600Z,34.10
2019-05-29T16:26:00.071Z,34.70
2019-05-29T16:28:29.229Z,35.50
2019-05-29T16:30:58.787Z,34.90
2019-05-29T16:33:27.928Z,34.50
2019-05-29T16:35:57.198Z,34.60
2019-05-29T16:38:26.363Z,34.60
2019-05-29T16:40:55.559Z,34.30
2019-05-29T16:43:24.763Z,34.20
2019-05-29T16:45:54.023Z,34.80
2019-05-29T16:48:23.173Z,34.70
2019-05-29T16:50:52.422Z,35.60
2019-05-29T16:53:23.064Z,35.60
2019-05-29T16:55:54.156Z,35.50
2019-05-29T16:58:23.336Z,35.40
2019-05-29T17:00:52.694Z,36.00
2019-05-29T17:03:21.912Z,35.70
2019-05-29T17:05:51.032Z,36.60
2019-05-29T17:08:20.384Z,35.80
2019-05-29T17:10:49.653Z,36.40
2019-05-29T17:13:18.812Z,37.50
2019-05-29T17:15:48.075Z,37.70
2019-05-29T17:18:17.725Z,38.10
2019-05-29T17:20:48.732Z,38.20
2019-05-29T17:23:18.864Z,38.50
2019-05-29T17:25:48.209Z,38.70
2019-05-29T17:28:21.432Z,39.10
2019-05-29T17:30:48.498Z,39.60
2019-05-29T17:33:18.911Z,39.50
2019-05-29T17:35:50.367Z,39.60
2019-05-29T17:38:19.570Z,39.80
2019-05-29T17:40:48.733Z,40.20
2019-05-29T17:43:24.753Z,40.00
2019-05-29T17:45:51.925Z,40.40
2019-05-29T17:48:23.902Z,40.50
2019-05-29T17:50:54.299Z,40.60
2019-05-29T17:53:24.249Z,40.90
2019-05-29T17:55:53.605Z,41.10
2019-05-29T17:58:24.920Z,41.30
2019-05-29T18:00:55.567Z,41.80
2019-05-29T18:03:29.828Z,42.00
2019-05-29T18:06:06.117Z,42.30
2019-05-29T18:09:01.275Z,42.40
2019-05-29T18:11:47.498Z,42.40
2019-05-29T18:14:28.732Z,42.80
2019-05-29T18:16:57.886Z,42.70
2019-05-29T18:19:28.179Z,42.90
2019-05-29T18:21:58.295Z,42.90
2019-05-29T18:24:28.035Z,42.70
2019-05-29T18:26:59.149Z,42.80
2019-05-29T18:29:29.743Z,43.00
2019-05-29T18:31:59.513Z,42.90
2019-05-29T18:34:29.633Z,42.90
2019-05-29T18:36:59.403Z,43.00
2019-05-29T18:39:28.561Z,43.10
2019-05-29T18:41:57.760Z,43.10
2019-05-29T18:44:28.964Z,43.20
2019-05-29T18:46:59.033Z,43.40
2019-05-29T18:49:28.693Z,43.40
2019-05-29T18:52:00.225Z,43.60
2019-05-29T18:54:32.996Z,43.70
2019-05-29T18:57:14.402Z,43.70
2019-05-29T18:59:36.397Z,43.90
2019-05-29T19:02:05.688Z,44.10
2019-05-29T19:04:35.965Z,44.00
2019-05-29T19:07:05.181Z,44.10
2019-05-29T19:09:34.451Z,44.10
2019-05-29T19:12:03.625Z,44.00
2019-05-29T19:14:32.842Z,44.30
2019-05-29T19:17:02.036Z,44.40
2019-05-29T19:19:32.526Z,44.40
2019-05-29T19:22:01.952Z,44.60
2019-05-29T19:24:33.704Z,44.70
2019-05-29T19:27:02.838Z,44.80
2019-05-29T19:29:33.619Z,44.90
2019-05-29T19:32:02.767Z,44.80
2019-05-29T19:34:37.697Z,45.30
2019-05-29T19:37:09.231Z,45.00
2019-05-29T19:40:01.844Z,45.30
2019-05-29T19:42:41.377Z,45.30
2019-05-29T19:45:21.115Z,45.60
2019-05-29T19:47:53.211Z,45.50
2019-05-29T19:50:23.154Z,45.80
2019-05-29T19:52:54.677Z,46.10
2019-05-29T19:55:30.417Z,46.00
2019-05-29T19:57:57.819Z,45.90
2019-05-29T20:00:30.058Z,46.20
2019-05-29T20:02:59.436Z,46.20
2019-05-29T20:05:28.666Z,46.50
2019-05-29T20:08:02.890Z,46.50
2019-05-29T20:10:39.527Z,46.30
2019-05-29T20:13:14.372Z,46.40
2019-05-29T20:15:45.093Z,46.50
2019-05-29T20:18:21.283Z,46.80
2019-05-29T20:20:57.389Z,46.90
2019-05-29T20:23:30.457Z,47.00
2019-05-29T20:51:38.281Z,48.30
2019-05-29T20:54:50.247Z,48.40
2019-05-29T20:57:19.533Z,48.50
2019-05-29T20:59:49.225Z,48.40
2019-05-29T21:02:38.159Z,48.50
2019-05-29T21:05:07.560Z,48.80
2019-05-29T21:07:37.011Z,48.90
2019-05-29T21:10:08.723Z,48.80
2019-05-29T21:12:42.478Z,49.10
2019-05-29T21:22:18.002Z,49.40
2019-05-29T21:25:01.124Z,49.70
2019-05-29T21:30:31.483Z,49.40
2019-05-29T21:33:04.492Z,49.80
2019-05-29T21:35:33.917Z,49.30
2019-05-29T21:38:07.975Z,49.80
2019-05-29T21:41:28.728Z,49.60
2019-05-29T21:43:57.958Z,49.70
2019-05-29T21:46:27.198Z,50.20
2019-05-29T21:48:56.514Z,50.30
2019-05-29T21:51:25.652Z,50.20
2019-05-29T21:53:54.840Z,50.70
2019-05-29T21:56:24.371Z,50.20
2019-05-29T21:59:02.714Z,50.60
2019-05-29T22:01:24.712Z,50.40
2019-05-29T22:03:54.050Z,50.90
2019-05-29T22:06:23.363Z,50.90
2019-05-29T22:08:52.602Z,51.40
2019-05-29T22:11:21.794Z,50.90
2019-05-29T22:13:52.264Z,51.20
2019-05-29T22:16:22.032Z,51.40
2019-05-29T22:18:51.196Z,51.00
2019-05-29T22:21:20.413Z,51.00
2019-05-29T22:23:49.610Z,51.10
2019-05-29T22:26:18.801Z,51.50
2019-05-29T22:28:47.953Z,51.40
2019-05-29T22:31:17.107Z,51.70
2019-05-29T22:33:46.299Z,51.30
2019-05-29T22:36:15.515Z,51.60
2019-05-29T22:38:44.738Z,51.70
2019-05-29T22:41:13.926Z,51.60
2019-05-29T22:43:43.144Z,51.90
2019-05-29T22:46:12.309Z,52.00
2019-05-29T22:48:41.484Z,51.90
2019-05-29T22:51:10.692Z,51.90
2019-05-29T22:53:39.906Z,51.70
2019-05-29T22:56:09.382Z,51.80
2019-05-29T22:58:38.883Z,51.80
2019-05-29T23:01:07.975Z,52.10
2019-05-29T23:03:37.236Z,52.10
2019-05-29T23:06:06.394Z,53.20
2019-05-29T23:08:35.601Z,53.10
2019-05-29T23:11:04.741Z,53.60
2019-05-29T23:13:33.884Z,53.60
2019-05-29T23:16:03.070Z,54.00
2019-05-29T23:18:32.308Z,54.30
2019-05-29T23:21:02.623Z,55.00
2019-05-29T23:23:32.440Z,54.60
2019-05-29T23:26:02.945Z,55.10
2019-05-29T23:28:32.339Z,55.50
2019-05-29T23:31:01.541Z,55.10
2019-05-29T23:33:30.713Z,55.50
2019-05-29T23:36:01.100Z,55.90
2019-05-29T23:38:30.414Z,56.00
2019-05-29T23:40:59.709Z,56.40
2019-05-29T23:43:29.162Z,56.70
2019-05-29T23:45:59.403Z,56.90
2019-05-29T23:48:29.156Z,56.90
2019-05-29T23:50:59.516Z,56.70
2019-05-29T23:53:28.932Z,57.30
2019-05-29T23:55:58.183Z,57.80
2019-05-29T23:58:27.379Z,58.50
